createdAt,value
2018-10-09T00:01:03.412Z,101670.89
2018-10-09T00:03:29.376Z,101664.15
2018-10-09T00:05:55.426Z,101665.95
2018-10-09T00:08:21.392Z,101657.69
2018-10-09T00:10:47.351Z,101653.73
2018-10-09T00:13:13.417Z,101655.50
2018-10-09T00:15:39.370Z,101660.45
2018-10-09T00:18:05.386Z,101660.79
2018-10-09T00:20:31.353Z,101655.16
2018-10-09T00:22:57.310Z,101652.52
2018-10-09T00:25:23.336Z,101646.03
2018-10-09T00:27:49.309Z,101644.71
2018-10-09T00:30:15.296Z,101632.00
2018-10-09T00:32:41.249Z,101625.05
2018-10-09T00:35:07.209Z,101623.84
2018-10-09T00:37:33.168Z,101623.84
2018-10-09T00:39:59.118Z,101624.33
2018-10-09T00:42:25.101Z,101616.75
2018-10-09T00:44:51.045Z,101611.96
2018-10-09T00:47:17.056Z,101605.02
2018-10-09T00:49:43.044Z,101603.20
2018-10-09T00:52:08.991Z,101603.70
2018-10-09T00:54:34.968Z,101604.53
2018-10-09T00:57:00.926Z,101606.68
2018-10-09T00:59:26.876Z,101613.77
2018-10-09T01:01:52.866Z,101612.08
2018-10-09T01:04:18.821Z,101617.24
2018-10-09T01:06:44.795Z,101612.08
2018-10-09T01:09:10.831Z,101615.20
2018-10-09T01:11:36.769Z,101613.40
2018-10-09T01:14:02.720Z,101610.19
2018-10-09T01:16:28.693Z,101604.41
2018-10-09T01:18:54.681Z,101606.71
2018-10-09T01:21:20.648Z,101615.47
2018-10-09T01:23:46.626Z,101611.99
2018-10-09T01:26:12.629Z,101605.88
2018-10-09T01:28:38.612Z,101605.73
2018-10-09T01:31:04.578Z,101602.61
2018-10-09T01:33:30.586Z,101604.56
2018-10-09T01:35:56.561Z,101599.28
2018-10-09T01:38:22.544Z,101603.24
2018-10-09T01:40:48.501Z,101598.80
2018-10-09T01:43:14.480Z,101607.05
2018-10-09T01:45:40.460Z,101611.02
2018-10-09T01:48:06.611Z,101618.22
2018-10-09T01:50:32.580Z,101617.27
2018-10-09T01:52:58.528Z,101619.42
2018-10-09T01:55:24.504Z,101613.43
2018-10-09T01:57:50.458Z,101616.56
2018-10-09T02:00:16.438Z,101624.48
2018-10-09T02:02:42.420Z,101625.45
2018-10-09T02:05:08.376Z,101625.91
2018-10-09T02:07:34.345Z,101621.61
2018-10-09T02:10:00.328Z,101625.57
2018-10-09T02:12:26.312Z,101629.05
2018-10-09T02:14:52.288Z,101634.44
2018-10-09T02:17:18.260Z,101641.41
2018-10-09T02:19:44.221Z,101639.72
2018-10-09T02:22:10.187Z,101646.70
2018-10-09T02:24:36.177Z,101637.80
2018-10-09T02:27:02.156Z,101628.70
2018-10-09T02:29:28.161Z,101626.06
2018-10-09T02:31:54.144Z,101624.37
2018-10-09T02:34:20.142Z,101625.34
2018-10-09T02:36:46.119Z,101622.22
2018-10-09T02:39:12.100Z,101619.09
2018-10-09T02:41:38.084Z,101614.30
2018-10-09T02:44:04.061Z,101614.41
2018-10-09T02:46:30.039Z,101621.01
2018-10-09T02:48:56.014Z,101613.46
2018-10-09T02:51:22.013Z,101609.27
2018-10-09T02:53:47.975Z,101613.09
2018-10-09T02:56:13.967Z,101610.67
2018-10-09T02:58:39.928Z,101606.26
2018-10-09T03:01:05.920Z,101608.98
2018-10-09T03:03:31.887Z,101602.75
2018-10-09T03:05:57.897Z,101600.83
2018-10-09T03:08:23.971Z,101598.53
2018-10-09T03:10:49.997Z,101601.17
2018-10-09T03:13:15.964Z,101594.57
2018-10-09T03:15:41.942Z,101592.42
2018-10-09T03:18:07.908Z,101587.62
2018-10-09T03:20:33.941Z,101584.34
2018-10-09T03:22:59.897Z,101583.40
2018-10-09T03:25:25.864Z,101576.42
2018-10-09T03:27:51.817Z,101578.12
2018-10-09T03:30:17.812Z,101571.14
2018-10-09T03:32:46.916Z,101568.05
2018-10-09T03:35:12.880Z,101568.76
2018-10-09T03:37:38.866Z,101562.98
2018-10-09T03:40:04.835Z,101556.98
2018-10-09T03:42:30.800Z,101555.55
2018-10-09T03:44:56.752Z,101552.20
2018-10-09T03:47:22.791Z,101544.99
2018-10-09T03:49:48.764Z,101545.45
2018-10-09T03:52:14.734Z,101545.94
2018-10-09T03:54:40.782Z,101539.34
2018-10-09T03:57:06.741Z,101533.22
2018-10-09T03:59:32.776Z,101536.35
2018-10-09T04:01:58.752Z,101531.53
2018-10-09T04:04:24.717Z,101532.39
2018-10-09T04:06:50.715Z,101537.67
2018-10-09T04:09:16.706Z,101538.99
2018-10-09T04:11:42.632Z,101542.47
2018-10-09T04:14:08.643Z,101543.41
2018-10-09T04:16:34.640Z,101542.69
2018-10-09T04:19:00.624Z,101544.73
2018-10-09T04:21:26.632Z,101538.84
2018-10-09T04:23:52.704Z,101533.22
2018-10-09T04:26:18.682Z,101531.53
2018-10-09T04:28:44.637Z,101530.36
2018-10-09T04:31:10.699Z,101528.89
2018-10-09T04:33:36.710Z,101528.43
2018-10-09T04:36:02.668Z,101533.22
2018-10-09T04:38:28.668Z,101532.73
2018-10-09T04:40:54.651Z,101524.93
2018-10-09T04:43:20.628Z,101525.79
2018-10-09T04:45:46.620Z,101526.62
2018-10-09T04:48:12.620Z,101521.83
2018-10-09T04:50:38.637Z,101520.28
2018-10-09T04:53:04.652Z,101522.44
2018-10-09T04:55:30.555Z,101530.36
2018-10-09T04:57:56.538Z,101528.66
2018-10-09T05:00:22.503Z,101534.32
2018-10-09T05:02:48.479Z,101536.13
2018-10-09T05:05:14.448Z,101534.32
2018-10-09T05:07:40.430Z,101533.48
2018-10-09T05:10:06.398Z,101536.13
2018-10-09T05:12:32.400Z,101541.41
2018-10-09T05:14:58.378Z,101542.24
2018-10-09T05:17:24.348Z,101536.59
2018-10-09T05:19:50.300Z,101540.55
2018-10-09T05:22:16.333Z,101538.77
2018-10-09T05:24:42.297Z,101542.73
2018-10-09T05:27:08.285Z,101538.28
2018-10-09T05:29:34.276Z,101543.08
2018-10-09T05:32:00.248Z,101544.05
2018-10-09T05:34:26.247Z,101548.47
2018-10-09T05:36:52.211Z,101554.23
2018-10-09T05:39:18.173Z,101558.58
2018-10-09T05:41:44.138Z,101555.56
2018-10-09T05:44:10.152Z,101557.38
2018-10-09T05:46:36.145Z,101564.80
2018-10-09T05:49:02.146Z,101565.30
2018-10-09T05:51:28.133Z,101563.14
2018-10-09T05:53:54.245Z,101575.37
2018-10-09T05:56:20.235Z,101575.37
2018-10-09T05:58:46.202Z,101583.78
2018-10-09T06:01:12.195Z,101587.25
2018-10-09T06:03:38.169Z,101589.55
2018-10-09T06:06:04.251Z,101593.85
2018-10-09T06:08:31.046Z,101590.72
2018-10-09T06:10:57.030Z,101593.85
2018-10-09T06:13:22.996Z,101596.49
2018-10-09T06:15:48.981Z,101603.92
2018-10-09T06:18:14.925Z,101607.89
2018-10-09T06:20:40.936Z,101611.99
2018-10-09T06:23:06.918Z,101613.31
2018-10-09T06:25:32.916Z,101616.30
2018-10-09T06:27:58.943Z,101610.30
2018-10-09T06:30:24.887Z,101611.16
2018-10-09T06:32:50.905Z,101609.20
2018-10-09T06:35:16.869Z,101612.94
2018-10-09T06:37:42.862Z,101616.07
2018-10-09T06:40:08.841Z,101620.41
2018-10-09T06:42:34.838Z,101615.81
2018-10-09T06:45:00.954Z,101617.13
2018-10-09T06:47:26.904Z,101617.36
2018-10-09T06:49:52.926Z,101630.70
2018-10-09T06:52:18.943Z,101628.56
2018-10-09T06:54:45.148Z,101635.16
2018-10-09T06:57:10.947Z,101634.19
2018-10-09T06:59:36.922Z,101636.83
2018-10-09T07:02:03.116Z,101632.03
2018-10-09T07:04:29.239Z,101640.78
2018-10-09T07:06:55.298Z,101642.59
2018-10-09T07:09:21.353Z,101643.91
2018-10-09T07:11:47.281Z,101643.08
2018-10-09T07:14:13.265Z,101649.20
2018-10-09T07:16:39.304Z,101652.67
2018-10-09T07:19:05.317Z,101653.98
2018-10-09T07:21:31.344Z,101645.58
2018-10-09T07:23:57.342Z,101653.64
2018-10-09T07:26:23.315Z,101655.53
2018-10-09T07:28:49.383Z,101662.97
2018-10-09T07:31:15.381Z,101663.92
2018-10-09T07:33:41.479Z,101664.41
2018-10-09T07:36:07.465Z,101667.88
2018-10-09T07:38:33.457Z,101674.86
2018-10-09T07:40:59.450Z,101675.80
2018-10-09T07:43:25.467Z,101684.94
2018-10-09T07:45:51.444Z,101686.59
2018-10-09T07:48:17.435Z,101691.05
2018-10-09T07:50:43.464Z,101691.88
2018-10-09T07:53:09.439Z,101690.70
2018-10-09T07:55:35.445Z,101684.22
2018-10-09T07:58:01.403Z,101692.86
2018-10-09T08:00:27.404Z,101693.12
2018-10-09T08:02:53.529Z,101690.07
2018-10-09T08:05:19.508Z,101689.98
2018-10-09T08:07:45.470Z,101689.02
2018-10-09T08:10:11.465Z,101690.70
2018-10-09T08:12:37.448Z,101694.19
2018-10-09T08:15:03.431Z,101694.67
2018-10-09T08:17:29.428Z,101694.56
2018-10-09T08:19:55.397Z,101691.92
2018-10-09T08:22:21.404Z,101689.27
2018-10-09T08:24:47.476Z,101688.78
2018-10-09T08:27:13.448Z,101689.12
2018-10-09T08:29:39.509Z,101692.14
2018-10-09T08:32:05.520Z,101697.28
2018-10-09T08:34:31.531Z,101690.34
2018-10-09T08:36:57.504Z,101702.56
2018-10-09T08:39:23.537Z,101696.11
2018-10-09T08:41:49.506Z,101705.20
2018-10-09T08:44:15.510Z,101709.17
2018-10-09T08:46:41.471Z,101711.95
2018-10-09T08:49:07.464Z,101710.75
2018-10-09T08:51:33.441Z,101711.33
2018-10-09T08:53:59.393Z,101710.14
2018-10-09T08:56:25.386Z,101719.14
2018-10-09T08:58:51.397Z,101711.33
2018-10-09T09:01:17.393Z,101707.36
2018-10-09T09:03:43.571Z,101711.81
2018-10-09T09:06:09.556Z,101714.95
2018-10-09T09:08:35.559Z,101711.81
2018-10-09T09:11:01.610Z,101709.66
2018-10-09T09:13:27.631Z,101707.02
2018-10-09T09:15:53.592Z,101707.50
2018-10-09T09:18:19.627Z,101712.04
2018-10-09T09:20:45.846Z,101712.88
2018-10-09T09:23:11.737Z,101720.94
2018-10-09T09:25:37.711Z,101719.02
2018-10-09T09:28:03.788Z,101726.57
2018-10-09T09:30:29.782Z,101715.05
2018-10-09T09:32:55.752Z,101710.61
2018-10-09T09:35:21.740Z,101709.28
2018-10-09T09:37:47.722Z,101716.38
2018-10-09T09:40:13.784Z,101711.93
2018-10-09T09:42:39.752Z,101711.93
2018-10-09T09:45:05.780Z,101705.66
2018-10-09T09:47:31.796Z,101707.36
2018-10-09T09:49:58.044Z,101700.88
2018-10-09T09:52:24.053Z,101698.23
2018-10-09T09:54:50.017Z,101694.27
2018-10-09T09:57:16.036Z,101693.28
2018-10-09T09:59:41.993Z,101693.28
2018-10-09T10:02:07.968Z,101697.14
2018-10-09T10:04:33.954Z,101687.77
2018-10-09T10:06:59.990Z,101693.89
2018-10-09T10:09:26.030Z,101689.81
2018-10-09T10:11:51.998Z,101690.64
2018-10-09T10:14:17.981Z,101688.49
2018-10-09T10:16:44.043Z,101683.09
2018-10-09T10:19:10.058Z,101677.20
2018-10-09T10:21:36.073Z,101674.19
2018-10-09T10:24:02.604Z,101677.32
2018-10-09T10:26:28.613Z,101677.70
2018-10-09T10:28:54.589Z,101678.64
2018-10-09T10:31:20.555Z,101680.80
2018-10-09T10:33:46.541Z,101680.34
2018-10-09T10:36:12.546Z,101681.52
2018-10-09T10:38:38.524Z,101682.83
2018-10-09T10:41:04.520Z,101682.49
2018-10-09T10:43:30.476Z,101671.44
2018-10-09T10:45:56.555Z,101664.34
2018-10-09T10:48:22.578Z,101668.19
2018-10-09T10:50:48.540Z,101661.09
2018-10-09T10:53:14.558Z,101663.84
2018-10-09T10:55:40.565Z,101665.50
2018-10-09T10:58:06.524Z,101661.91
2018-10-09T11:00:32.521Z,101664.19
2018-10-09T11:02:58.497Z,101665.62
2018-10-09T11:05:24.521Z,101663.95
2018-10-09T11:07:50.546Z,101658.90
2018-10-09T11:10:16.459Z,101659.61
2018-10-09T11:12:43.587Z,101658.90
2018-10-09T11:15:09.545Z,101658.78
2018-10-09T11:17:35.505Z,101656.97
2018-10-09T11:20:01.501Z,101650.86
2018-10-09T11:22:27.475Z,101654.33
2018-10-09T11:24:53.668Z,101642.78
2018-10-09T11:27:19.665Z,101645.57
2018-10-09T11:29:45.642Z,101638.47
2018-10-09T11:32:11.645Z,101640.14
2018-10-09T11:34:37.616Z,101638.81
2018-10-09T11:37:03.607Z,101632.20
2018-10-09T11:39:29.565Z,101631.27
2018-10-09T11:41:55.528Z,101627.64
2018-10-09T11:44:21.499Z,101617.89
2018-10-09T11:46:47.484Z,101613.10
2018-10-09T11:49:13.500Z,101607.33
2018-10-09T11:51:39.632Z,101601.36
2018-10-09T11:54:05.664Z,101602.53
2018-10-09T11:56:31.680Z,101606.87
2018-10-09T11:58:57.712Z,101599.06
2018-10-09T12:01:23.630Z,101598.08
2018-10-09T12:03:49.630Z,101591.02
2018-10-09T12:06:15.668Z,101578.75
2018-10-09T12:08:41.666Z,101580.44
2018-10-09T12:11:07.609Z,101576.72
2018-10-09T12:13:33.587Z,101577.92
2018-10-09T12:16:00.817Z,101576.11
2018-10-09T12:18:26.737Z,101573.34
2018-10-09T12:20:52.725Z,101572.36
2018-10-09T12:23:18.762Z,101571.88
2018-10-09T12:25:44.884Z,101570.21
2018-10-09T12:28:10.901Z,101568.63
2018-10-09T12:30:36.895Z,101563.83
2018-10-09T12:33:02.983Z,101558.05
2018-10-09T12:35:28.882Z,101559.74
2018-10-09T12:37:54.878Z,101552.27
2018-10-09T12:40:20.896Z,101554.45
2018-10-09T12:42:46.879Z,101551.44
2018-10-09T12:45:12.869Z,101557.56
2018-10-09T12:47:38.861Z,101555.41
2018-10-09T12:50:04.827Z,101549.63
2018-10-09T12:52:30.827Z,101549.63
2018-10-09T12:54:56.845Z,101544.00
2018-10-09T12:57:22.838Z,101547.48
2018-10-09T12:59:48.925Z,101546.16
2018-10-09T13:02:15.028Z,101542.56
2018-10-09T13:04:41.262Z,101540.05
2018-10-09T13:07:07.392Z,101536.08
2018-10-09T13:09:33.415Z,101536.91
2018-10-09T13:11:59.392Z,101533.66
2018-10-09T13:14:25.352Z,101535.08
2018-10-09T13:16:51.349Z,101536.02
2018-10-09T13:19:17.419Z,101538.20
2018-10-09T13:21:43.797Z,101534.25
2018-10-09T13:24:09.572Z,101529.17
2018-10-09T13:26:35.607Z,101532.65
2018-10-09T13:29:01.638Z,101527.86
2018-10-09T13:31:27.621Z,101525.67
2018-10-09T13:33:53.674Z,101528.69
2018-10-09T13:36:19.609Z,101530.01
2018-10-09T13:38:45.668Z,101531.45
2018-10-09T13:41:11.675Z,101525.33
2018-10-09T13:43:37.660Z,101519.44
2018-10-09T13:46:03.646Z,101513.44
2018-10-09T13:48:29.633Z,101513.78
2018-10-09T13:50:55.677Z,101512.45
2018-10-09T13:53:21.601Z,101514.27
2018-10-09T13:55:47.554Z,101515.47
2018-10-09T13:58:13.590Z,101512.67
2018-10-09T14:00:39.604Z,101510.89
2018-10-09T14:03:05.586Z,101512.43
2018-10-09T14:05:31.550Z,101518.17
2018-10-09T14:07:57.537Z,101513.88
2018-10-09T14:10:23.530Z,101509.91
2018-10-09T14:12:49.505Z,101509.78
2018-10-09T14:15:15.506Z,101500.53
2018-10-09T14:17:41.513Z,101498.72
2018-10-09T14:20:07.561Z,101500.88
2018-10-09T14:22:33.628Z,101496.08
2018-10-09T14:24:59.589Z,101498.35
2018-10-09T14:27:25.637Z,101489.59
2018-10-09T14:29:51.614Z,101484.58
2018-10-09T14:32:17.588Z,101492.85
2018-10-09T14:34:43.621Z,101483.14
2018-10-09T14:37:09.555Z,101485.78
2018-10-09T14:39:35.560Z,101488.27
2018-10-09T14:42:01.621Z,101488.98
2018-10-09T14:44:27.605Z,101483.69
2018-10-09T14:46:53.574Z,101486.70
2018-10-09T14:49:19.540Z,101487.04
2018-10-09T14:51:45.670Z,101488.36
2018-10-09T14:54:11.682Z,101494.64
2018-10-09T14:56:37.669Z,101490.17
2018-10-09T14:59:03.647Z,101490.17
2018-10-09T15:01:29.632Z,101485.38
2018-10-09T15:03:55.655Z,101482.37
2018-10-09T15:06:21.645Z,101490.79
2018-10-09T15:08:47.737Z,101490.30
2018-10-09T15:11:13.710Z,101492.61
2018-10-09T15:13:39.815Z,101486.95
2018-10-09T15:16:05.798Z,101490.91
2018-10-09T15:18:31.808Z,101495.25
2018-10-09T15:20:57.813Z,101492.94
2018-10-09T15:23:23.933Z,101489.47
2018-10-09T15:25:49.955Z,101495.59
2018-10-09T15:28:15.953Z,101493.44
2018-10-09T15:30:41.908Z,101500.26
2018-10-09T15:33:07.972Z,101495.95
2018-10-09T15:35:34.151Z,101495.95
2018-10-09T15:38:01.097Z,101493.53
2018-10-09T15:40:27.109Z,101488.36
2018-10-09T15:42:53.125Z,101488.36
2018-10-09T15:45:19.117Z,101485.38
2018-10-09T15:47:45.281Z,101479.39
2018-10-09T15:50:11.235Z,101487.66
2018-10-09T15:52:37.302Z,101489.34
2018-10-09T15:55:03.255Z,101487.94
2018-10-09T15:57:29.258Z,101489.10
2018-10-09T15:59:55.238Z,101490.91
2018-10-09T16:02:21.220Z,101494.54
2018-10-09T16:04:47.193Z,101487.22
2018-10-09T16:07:13.153Z,101490.70
2018-10-09T16:09:39.162Z,101483.97
2018-10-09T16:12:05.139Z,101492.39
2018-10-09T16:14:31.263Z,101489.75
2018-10-09T16:16:57.265Z,101492.73
2018-10-09T16:19:23.243Z,101490.58
2018-10-09T16:21:49.269Z,101487.56
2018-10-09T16:24:15.407Z,101486.95
2018-10-09T16:26:42.419Z,101484.46
2018-10-09T16:29:08.489Z,101483.81
2018-10-09T16:31:34.551Z,101483.48
2018-10-09T16:34:00.569Z,101480.61
2018-10-09T16:36:26.584Z,101485.91
2018-10-09T16:38:52.566Z,101486.24
2018-10-09T16:41:18.562Z,101490.85
2018-10-09T16:43:44.574Z,101493.62
2018-10-09T16:46:10.576Z,101492.78
2018-10-09T16:48:36.540Z,101496.38
2018-10-09T16:51:02.646Z,101492.56
2018-10-09T16:53:28.733Z,101496.38
2018-10-09T16:55:54.601Z,101500.22
2018-10-09T16:58:20.592Z,101500.72
2018-10-09T17:00:47.211Z,101498.07
2018-10-09T17:03:13.225Z,101493.89
2018-10-09T17:05:39.276Z,101500.22
2018-10-09T17:08:05.284Z,101504.19
2018-10-09T17:10:31.278Z,101499.23
2018-10-09T17:12:57.272Z,101503.20
2018-10-09T17:15:23.381Z,101507.17
2018-10-09T17:17:49.388Z,101505.63
2018-10-09T17:20:15.449Z,101508.05
2018-10-09T17:22:41.508Z,101516.97
2018-10-09T17:25:07.496Z,101517.19
2018-10-09T17:27:33.483Z,101515.16
2018-10-09T17:29:59.509Z,101517.80
2018-10-09T17:32:25.531Z,101515.64
2018-10-09T17:34:51.466Z,101519.48
2018-10-09T17:37:17.482Z,101523.45
2018-10-09T17:39:43.445Z,101523.08
2018-10-09T17:42:09.491Z,101526.70
2018-10-09T17:44:35.450Z,101528.59
2018-10-09T17:47:02.283Z,101528.31
2018-10-09T17:49:29.437Z,101529.39
2018-10-09T17:51:55.506Z,101525.55
2018-10-09T17:54:21.476Z,101524.72
2018-10-09T17:56:47.455Z,101527.21
2018-10-09T17:59:13.431Z,101532.98
2018-10-09T18:01:39.433Z,101529.78
2018-10-09T18:04:05.424Z,101532.70
2018-10-09T18:06:31.536Z,101539.55
2018-10-09T18:08:57.786Z,101538.82
2018-10-09T18:11:23.857Z,101535.69
2018-10-09T18:13:49.852Z,101541.58
2018-10-09T18:16:15.862Z,101540.38
2018-10-09T18:18:41.920Z,101539.77
2018-10-09T18:21:07.910Z,101543.52
2018-10-09T18:23:33.882Z,101537.89
2018-10-09T18:25:59.937Z,101546.98
2018-10-09T18:28:25.930Z,101545.66
2018-10-09T18:30:51.907Z,101546.03
2018-10-09T18:33:18.023Z,101545.42
2018-10-09T18:35:43.899Z,101544.33
2018-10-09T18:38:09.913Z,101541.69
2018-10-09T18:40:36.001Z,101547.46
2018-10-09T18:43:01.928Z,101545.42
2018-10-09T18:45:27.915Z,101547.70
2018-10-09T18:47:53.899Z,101550.49
2018-10-09T18:50:19.907Z,101550.00
2018-10-09T18:52:45.888Z,101553.84
2018-10-09T18:55:11.872Z,101551.20
2018-10-09T18:57:37.871Z,101554.45
2018-10-09T19:00:03.853Z,101551.94
2018-10-09T19:02:29.826Z,101550.27
2018-10-09T19:04:55.809Z,101555.56
2018-10-09T19:07:21.838Z,101556.39
2018-10-09T19:09:47.855Z,101557.83
2018-10-09T19:12:13.845Z,101556.73
2018-10-09T19:14:39.828Z,101555.06
2018-10-09T19:17:05.822Z,101551.44
2018-10-09T19:19:31.797Z,101557.32
2018-10-09T19:21:57.808Z,101560.67
2018-10-09T19:24:23.765Z,101559.69
2018-10-09T19:26:49.839Z,101557.17
2018-10-09T19:29:15.826Z,101554.80
2018-10-09T19:31:42.933Z,101561.41
2018-10-09T19:34:09.357Z,101556.23
2018-10-09T19:36:35.410Z,101556.39
2018-10-09T19:39:01.568Z,101560.35
2018-10-09T19:41:27.542Z,101560.35
2018-10-09T19:43:53.576Z,101563.00
2018-10-09T19:46:19.554Z,101563.00
2018-10-09T19:48:45.531Z,101565.41
2018-10-09T19:51:11.730Z,101560.96
2018-10-09T19:53:37.595Z,101557.00
2018-10-09T19:56:03.603Z,101561.79
2018-10-09T19:58:29.600Z,101565.27
2018-10-09T20:00:55.727Z,101568.89
2018-10-09T20:03:21.594Z,101569.94
2018-10-09T20:05:47.579Z,101567.40
2018-10-09T20:08:13.549Z,101578.09
2018-10-09T20:10:39.663Z,101569.33
2018-10-09T20:13:05.636Z,101567.30
2018-10-09T20:15:31.613Z,101576.70
2018-10-09T20:17:57.660Z,101573.56
2018-10-09T20:20:23.622Z,101570.55
2018-10-09T20:22:49.586Z,101571.88
2018-10-09T20:25:15.617Z,101570.92
2018-10-09T20:27:41.588Z,101574.17
2018-10-09T20:30:07.561Z,101570.21
2018-10-09T20:32:33.572Z,101576.82
2018-10-09T20:34:59.608Z,101568.40
2018-10-09T20:37:25.577Z,101569.50
2018-10-09T20:39:51.620Z,101570.82
2018-10-09T20:42:17.676Z,101572.75
2018-10-09T20:44:43.698Z,101578.41
2018-10-09T20:47:09.659Z,101572.85
2018-10-09T20:49:35.641Z,101578.85
2018-10-09T20:52:01.669Z,101580.02
2018-10-09T20:54:27.760Z,101581.12
2018-10-09T20:56:53.730Z,101583.77
2018-10-09T20:59:19.732Z,101580.78
2018-10-09T21:01:45.699Z,101575.16
2018-10-09T21:04:11.690Z,101572.97
2018-10-09T21:06:37.649Z,101571.80
2018-10-09T21:09:03.658Z,101576.48
2018-10-09T21:11:29.643Z,101572.14
2018-10-09T21:13:55.671Z,101574.78
2018-10-09T21:16:21.645Z,101570.97
2018-10-09T21:18:47.609Z,101573.13
2018-10-09T21:21:13.585Z,101571.80
2018-10-09T21:23:39.580Z,101574.08
2018-10-09T21:26:05.584Z,101571.58
2018-10-09T21:28:31.561Z,101578.90
2018-10-09T21:30:57.572Z,101572.07
2018-10-09T21:33:23.544Z,101571.31
2018-10-09T21:35:49.522Z,101577.80
2018-10-09T21:38:15.528Z,101570.70
2018-10-09T21:40:41.520Z,101569.94
2018-10-09T21:43:07.489Z,101571.88
2018-10-09T21:45:33.445Z,101572.97
2018-10-09T21:47:59.446Z,101572.30
2018-10-09T21:50:25.431Z,101571.31
2018-10-09T21:52:51.419Z,101573.95
2018-10-09T21:55:17.425Z,101574.56
2018-10-09T21:57:43.404Z,101572.30
2018-10-09T22:00:09.393Z,101578.90
2018-10-09T22:02:35.440Z,101569.16
2018-10-09T22:05:01.415Z,101568.67
2018-10-09T22:07:27.398Z,101573.95
2018-10-09T22:09:53.376Z,101575.28
2018-10-09T22:12:19.377Z,101580.22
2018-10-09T22:14:45.346Z,101576.03
2018-10-09T22:17:11.328Z,101574.34
2018-10-09T22:19:37.422Z,101573.39
2018-10-09T22:22:03.394Z,101569.50
2018-10-09T22:24:29.427Z,101569.38
2018-10-09T22:26:55.430Z,101566.73
2018-10-09T22:29:22.443Z,101566.25
2018-10-09T22:31:48.485Z,101561.35
2018-10-09T22:34:14.477Z,101562.19
2018-10-09T22:36:40.444Z,101559.08
2018-10-09T22:39:06.432Z,101559.76
2018-10-09T22:41:32.478Z,101557.48
2018-10-09T22:43:58.554Z,101559.30
2018-10-09T22:46:24.556Z,101551.61
2018-10-09T22:48:50.563Z,101555.95
2018-10-09T22:51:16.573Z,101560.18
2018-10-09T22:53:42.546Z,101559.20
2018-10-09T22:56:08.506Z,101560.52
2018-10-09T22:58:34.491Z,101556.06
2018-10-09T23:01:00.469Z,101553.91
2018-10-09T23:03:26.543Z,101554.25
2018-10-09T23:05:52.520Z,101553.08
2018-10-09T23:08:18.471Z,101556.67
2018-10-09T23:10:44.460Z,101550.06
2018-10-09T23:13:10.444Z,101554.89
2018-10-09T23:15:36.405Z,101553.58
2018-10-09T23:18:02.373Z,101549.73
2018-10-09T23:20:28.344Z,101556.83
2018-10-09T23:22:54.331Z,101554.19
2018-10-09T23:25:22.349Z,101559.09
2018-10-09T23:27:48.335Z,101558.61
2018-10-09T23:30:14.371Z,101558.98
2018-10-09T23:32:40.369Z,101558.61
2018-10-09T23:35:06.357Z,101558.15
2018-10-09T23:37:32.350Z,101556.95
2018-10-09T23:39:58.333Z,101555.13
2018-10-09T23:42:24.306Z,101549.51
2018-10-09T23:44:50.263Z,101547.70
2018-10-09T23:47:16.258Z,101545.55
2018-10-09T23:49:42.221Z,101546.03
2018-10-09T23:52:08.179Z,101546.49
2018-10-09T23:54:34.159Z,101537.62
2018-10-09T23:57:00.131Z,101537.73
2018-10-09T23:59:26.146Z,101540.04
